sensor_id;sensor_type;location;lat;lon;timestamp;noise_LAeq;noise_LA_min;noise_LA_max;noise_LA01;noise_LA95
75037;Laerm;64247;51.540;5.854;2023-04-15T00:01:14;46.22;44.45;61.08;;
75037;Laerm;64247;51.540;5.854;2023-04-15T00:03:18;46.15;44.43;62.81;;
75037;Laerm;64247;51.540;5.854;2023-04-15T00:05:20;46.13;44.52;48.06;;
75037;Laerm;64247;51.540;5.854;2023-04-15T00:07:21;50.72;44.91;80.28;;
75037;Laerm;64247;51.540;5.854;2023-04-15T00:09:22;46.39;44.57;49.82;;
75037;Laerm;64247;51.540;5.854;2023-04-15T00:11:23;46.81;45.24;48.34;;
75037;Laerm;64247;51.540;5.854;2023-04-15T00:13:24;47.66;45.42;52.48;;
75037;Laerm;64247;51.540;5.854;2023-04-15T00:15:25;47.80;45.41;52.59;;
75037;Laerm;64247;51.540;5.854;2023-04-15T00:17:26;47.84;45.27;59.84;;
75037;Laerm;64247;51.540;5.854;2023-04-15T00:19:27;47.43;45.11;54.43;;
75037;Laerm;64247;51.540;5.854;2023-04-15T00:21:29;46.98;45.14;49.36;;
75037;Laerm;64247;51.540;5.854;2023-04-15T00:23:31;47.03;45.45;52.20;;
75037;Laerm;64247;51.540;5.854;2023-04-15T00:25:31;46.83;45.22;48.66;;
75037;Laerm;64247;51.540;5.854;2023-04-15T00:27:32;46.86;44.95;48.57;;
75037;Laerm;64247;51.540;5.854;2023-04-15T00:29:33;48.39;45.42;57.31;;
75037;Laerm;64247;51.540;5.854;2023-04-15T00:31:35;46.82;45.06;51.93;;
75037;Laerm;64247;51.540;5.854;2023-04-15T00:33:36;46.86;44.93;58.82;;
75037;Laerm;64247;51.540;5.854;2023-04-15T00:35:37;46.89;45.22;48.46;;
75037;Laerm;64247;51.540;5.854;2023-04-15T00:37:38;46.76;44.89;48.11;;
75037;Laerm;64247;51.540;5.854;2023-04-15T00:39:38;46.67;45.12;48.20;;
75037;Laerm;64247;51.540;5.854;2023-04-15T00:41:39;46.71;45.20;48.23;;
75037;Laerm;64247;51.540;5.854;2023-04-15T00:43:41;47.41;45.12;51.79;;
75037;Laerm;64247;51.540;5.854;2023-04-15T00:45:42;48.22;45.26;58.67;;
75037;Laerm;64247;51.540;5.854;2023-04-15T00:47:43;46.92;45.38;48.39;;
75037;Laerm;64247;51.540;5.854;2023-04-15T00:49:45;46.84;45.15;48.56;;
75037;Laerm;64247;51.540;5.854;2023-04-15T00:51:46;46.40;44.22;47.99;;
75037;Laerm;64247;51.540;5.854;2023-04-15T00:53:47;46.12;44.24;47.64;;
75037;Laerm;64247;51.540;5.854;2023-04-15T00:55:48;45.98;44.50;47.95;;
75037;Laerm;64247;51.540;5.854;2023-04-15T00:57:49;46.09;44.43;47.55;;
75037;Laerm;64247;51.540;5.854;2023-04-15T00:59:52;46.46;44.79;48.24;;
75037;Laerm;64247;51.540;5.854;2023-04-15T01:01:55;46.42;44.61;48.05;;
75037;Laerm;64247;51.540;5.854;2023-04-15T01:03:56;46.19;44.55;47.52;;
75037;Laerm;64247;51.540;5.854;2023-04-15T01:06:02;46.19;44.56;47.85;;
75037;Laerm;64247;51.540;5.854;2023-04-15T01:08:04;46.26;44.52;48.48;;
75037;Laerm;64247;51.540;5.854;2023-04-15T01:10:06;48.33;44.29;56.92;;
75037;Laerm;64247;51.540;5.854;2023-04-15T01:12:11;49.20;45.41;57.62;;
75037;Laerm;64247;51.540;5.854;2023-04-15T01:14:12;47.30;45.38;50.14;;
75037;Laerm;64247;51.540;5.854;2023-04-15T01:16:13;48.95;45.32;57.69;;
75037;Laerm;64247;51.540;5.854;2023-04-15T01:18:14;47.69;45.34;53.75;;
75037;Laerm;64247;51.540;5.854;2023-04-15T01:20:16;47.14;44.61;51.64;;
75037;Laerm;64247;51.540;5.854;2023-04-15T01:22:17;47.48;45.33;52.37;;
75037;Laerm;64247;51.540;5.854;2023-04-15T01:24:18;47.06;45.50;61.40;;
75037;Laerm;64247;51.540;5.854;2023-04-15T01:26:19;47.01;45.51;49.63;;
75037;Laerm;64247;51.540;5.854;2023-04-15T01:28:21;46.96;45.38;48.45;;
75037;Laerm;64247;51.540;5.854;2023-04-15T01:30:22;46.85;45.14;51.63;;
75037;Laerm;64247;51.540;5.854;2023-04-15T01:32:23;46.81;45.21;48.39;;
75037;Laerm;64247;51.540;5.854;2023-04-15T01:34:25;46.79;45.19;48.28;;
75037;Laerm;64247;51.540;5.854;2023-04-15T01:36:28;48.11;45.55;56.35;;
75037;Laerm;64247;51.540;5.854;2023-04-15T01:38:30;47.00;45.17;48.42;;
75037;Laerm;64247;51.540;5.854;2023-04-15T01:40:32;46.93;45.12;48.79;;
75037;Laerm;64247;51.540;5.854;2023-04-15T01:42:35;48.52;45.57;54.04;;
75037;Laerm;64247;51.540;5.854;2023-04-15T01:44:36;47.59;45.11;53.59;;
75037;Laerm;64247;51.540;5.854;2023-04-15T01:46:37;47.00;45.18;49.79;;
75037;Laerm;64247;51.540;5.854;2023-04-15T01:48:38;46.93;44.97;48.64;;
75037;Laerm;64247;51.540;5.854;2023-04-15T01:50:38;47.07;45.44;49.03;;
75037;Laerm;64247;51.540;5.854;2023-04-15T01:52:40;46.32;44.58;48.19;;
75037;Laerm;64247;51.540;5.854;2023-04-15T01:54:41;46.33;44.23;52.59;;
75037;Laerm;64247;51.540;5.854;2023-04-15T01:56:42;47.41;44.71;52.63;;
75037;Laerm;64247;51.540;5.854;2023-04-15T01:58:43;46.34;44.79;59.82;;
75037;Laerm;64247;51.540;5.854;2023-04-15T02:00:44;48.53;44.63;58.43;;
75037;Laerm;64247;51.540;5.854;2023-04-15T02:02:45;47.83;44.68;55.87;;
75037;Laerm;64247;51.540;5.854;2023-04-15T02:04:46;48.60;44.91;58.95;;
75037;Laerm;64247;51.540;5.854;2023-04-15T02:06:47;48.83;44.92;58.76;;
75037;Laerm;64247;51.540;5.854;2023-04-15T02:08:48;48.45;45.15;57.22;;
75037;Laerm;64247;51.540;5.854;2023-04-15T02:10:48;47.24;45.33;52.57;;
75037;Laerm;64247;51.540;5.854;2023-04-15T02:12:49;47.32;45.54;53.33;;
75037;Laerm;64247;51.540;5.854;2023-04-15T02:14:50;46.93;45.46;50.92;;
75037;Laerm;64247;51.540;5.854;2023-04-15T02:16:51;47.83;45.46;53.45;;
75037;Laerm;64247;51.540;5.854;2023-04-15T02:18:51;47.17;45.43;49.16;;
75037;Laerm;64247;51.540;5.854;2023-04-15T02:20:52;49.10;45.71;57.57;;
75037;Laerm;64247;51.540;5.854;2023-04-15T02:22:53;47.22;45.31;50.28;;
75037;Laerm;64247;51.540;5.854;2023-04-15T02:24:54;47.93;45.37;52.70;;
75037;Laerm;64247;51.540;5.854;2023-04-15T02:26:56;50.01;45.69;58.71;;
75037;Laerm;64247;51.540;5.854;2023-04-15T02:28:57;48.93;45.68;54.99;;
75037;Laerm;64247;51.540;5.854;2023-04-15T02:30:58;49.57;45.73;59.26;;
75037;Laerm;64247;51.540;5.854;2023-04-15T02:33:00;47.57;45.77;54.65;;
75037;Laerm;64247;51.540;5.854;2023-04-15T02:35:03;47.84;45.39;54.75;;
75037;Laerm;64247;51.540;5.854;2023-04-15T02:37:08;47.26;45.22;54.73;;
75037;Laerm;64247;51.540;5.854;2023-04-15T02:39:10;47.32;45.39;55.08;;
75037;Laerm;64247;51.540;5.854;2023-04-15T02:41:12;48.04;45.30;58.61;;
75037;Laerm;64247;51.540;5.854;2023-04-15T02:43:13;47.04;45.20;51.94;;
75037;Laerm;64247;51.540;5.854;2023-04-15T02:45:15;47.75;45.33;56.26;;
75037;Laerm;64247;51.540;5.854;2023-04-15T02:47:17;48.26;45.53;58.52;;
75037;Laerm;64247;51.540;5.854;2023-04-15T02:49:18;47.17;45.59;48.95;;
75037;Laerm;64247;51.540;5.854;2023-04-15T02:51:21;46.97;45.08;49.27;;
75037;Laerm;64247;51.540;5.854;2023-04-15T02:53:22;47.45;45.09;53.79;;
75037;Laerm;64247;51.540;5.854;2023-04-15T02:55:23;46.71;43.98;55.11;;
75037;Laerm;64247;51.540;5.854;2023-04-15T02:57:24;48.17;44.71;58.32;;
75037;Laerm;64247;51.540;5.854;2023-04-15T02:59:25;46.48;44.63;53.43;;
75037;Laerm;64247;51.540;5.854;2023-04-15T03:01:26;48.52;45.25;59.48;;
75037;Laerm;64247;51.540;5.854;2023-04-15T03:03:27;46.63;44.67;53.37;;
75037;Laerm;64247;51.540;5.854;2023-04-15T03:05:28;46.91;44.98;62.48;;
75037;Laerm;64247;51.540;5.854;2023-04-15T03:07:31;47.46;44.65;54.39;;
75037;Laerm;64247;51.540;5.854;2023-04-15T03:09:31;48.18;45.18;54.97;;
75037;Laerm;64247;51.540;5.854;2023-04-15T03:11:34;47.32;45.21;55.30;;
75037;Laerm;64247;51.540;5.854;2023-04-15T03:13:41;49.85;45.64;66.76;;
75037;Laerm;64247;51.540;5.854;2023-04-15T03:15:54;48.71;45.48;60.66;;
75037;Laerm;64247;51.540;5.854;2023-04-15T03:17:57;49.35;45.60;60.42;;
75037;Laerm;64247;51.540;5.854;2023-04-15T03:19:57;48.95;45.82;59.27;;
75037;Laerm;64247;51.540;5.854;2023-04-15T03:21:58;48.90;45.60;68.14;;
75037;Laerm;64247;51.540;5.854;2023-04-15T03:23:59;50.07;45.63;70.35;;
75037;Laerm;64247;51.540;5.854;2023-04-15T03:26:02;49.10;45.36;69.56;;
75037;Laerm;64247;51.540;5.854;2023-04-15T03:28:04;49.38;45.55;65.22;;
75037;Laerm;64247;51.540;5.854;2023-04-15T03:30:07;50.00;45.87;67.31;;
75037;Laerm;64247;51.540;5.854;2023-04-15T03:32:10;51.10;45.97;65.66;;
75037;Laerm;64247;51.540;5.854;2023-04-15T03:34:12;53.03;45.57;70.10;;
75037;Laerm;64247;51.540;5.854;2023-04-15T03:36:13;52.66;46.00;67.82;;
75037;Laerm;64247;51.540;5.854;2023-04-15T03:38:15;53.10;46.56;69.45;;
75037;Laerm;64247;51.540;5.854;2023-04-15T03:40:16;52.85;46.38;66.27;;
75037;Laerm;64247;51.540;5.854;2023-04-15T03:42:16;53.65;46.11;68.53;;
75037;Laerm;64247;51.540;5.854;2023-04-15T03:44:17;54.25;46.21;67.55;;
75037;Laerm;64247;51.540;5.854;2023-04-15T03:46:18;54.34;45.69;68.78;;
75037;Laerm;64247;51.540;5.854;2023-04-15T03:48:19;57.04;45.93;71.87;;
75037;Laerm;64247;51.540;5.854;2023-04-15T03:50:20;53.62;45.30;70.37;;
75037;Laerm;64247;51.540;5.854;2023-04-15T03:52:21;54.42;45.53;71.54;;
75037;Laerm;64247;51.540;5.854;2023-04-15T03:54:22;53.54;45.14;68.30;;
75037;Laerm;64247;51.540;5.854;2023-04-15T03:56:23;54.32;45.84;69.78;;
75037;Laerm;64247;51.540;5.854;2023-04-15T03:58:24;53.18;46.21;64.30;;
75037;Laerm;64247;51.540;5.854;2023-04-15T04:00:25;55.90;45.87;73.98;;
75037;Laerm;64247;51.540;5.854;2023-04-15T04:02:26;57.31;45.88;72.24;;
75037;Laerm;64247;51.540;5.854;2023-04-15T04:04:27;57.32;45.98;72.31;;
75037;Laerm;64247;51.540;5.854;2023-04-15T04:06:28;56.97;45.49;72.50;;
75037;Laerm;64247;51.540;5.854;2023-04-15T04:08:29;56.35;45.53;69.97;;
75037;Laerm;64247;51.540;5.854;2023-04-15T04:10:30;56.75;46.86;70.55;;
75037;Laerm;64247;51.540;5.854;2023-04-15T04:12:30;57.43;46.65;69.33;;
75037;Laerm;64247;51.540;5.854;2023-04-15T04:14:31;58.27;47.14;70.80;;
75037;Laerm;64247;51.540;5.854;2023-04-15T04:16:32;57.85;46.88;70.56;;
75037;Laerm;64247;51.540;5.854;2023-04-15T04:18:33;55.57;47.23;64.67;;
75037;Laerm;64247;51.540;5.854;2023-04-15T04:20:34;56.01;47.39;64.94;;
75037;Laerm;64247;51.540;5.854;2023-04-15T04:22:39;56.55;47.86;66.89;;
75037;Laerm;64247;51.540;5.854;2023-04-15T04:24:40;57.05;47.14;67.50;;
75037;Laerm;64247;51.540;5.854;2023-04-15T04:26:41;56.35;46.98;66.13;;
75037;Laerm;64247;51.540;5.854;2023-04-15T04:28:41;56.08;47.54;65.08;;
75037;Laerm;64247;51.540;5.854;2023-04-15T04:30:42;55.90;46.96;66.89;;
75037;Laerm;64247;51.540;5.854;2023-04-15T04:32:43;57.61;47.90;70.30;;
75037;Laerm;64247;51.540;5.854;2023-04-15T04:34:44;54.99;48.13;67.88;;
75037;Laerm;64247;51.540;5.854;2023-04-15T04:36:45;53.02;46.61;64.91;;
75037;Laerm;64247;51.540;5.854;2023-04-15T04:38:46;55.00;46.44;66.50;;
75037;Laerm;64247;51.540;5.854;2023-04-15T04:40:47;52.14;46.15;66.33;;
75037;Laerm;64247;51.540;5.854;2023-04-15T04:42:48;50.96;45.84;62.78;;
75037;Laerm;64247;51.540;5.854;2023-04-15T04:44:49;52.09;46.13;68.97;;
75037;Laerm;64247;51.540;5.854;2023-04-15T04:46:50;52.33;46.76;64.94;;
75037;Laerm;64247;51.540;5.854;2023-04-15T04:48:50;52.95;46.55;63.63;;
75037;Laerm;64247;51.540;5.854;2023-04-15T04:50:52;50.59;46.99;66.33;;
75037;Laerm;64247;51.540;5.854;2023-04-15T04:52:53;51.72;46.31;67.25;;
75037;Laerm;64247;51.540;5.854;2023-04-15T04:54:53;50.06;45.96;62.53;;
75037;Laerm;64247;51.540;5.854;2023-04-15T04:56:55;51.10;45.50;63.08;;
75037;Laerm;64247;51.540;5.854;2023-04-15T04:58:57;51.55;46.44;63.48;;
75037;Laerm;64247;51.540;5.854;2023-04-15T05:00:58;52.84;45.50;64.44;;
75037;Laerm;64247;51.540;5.854;2023-04-15T05:02:59;54.19;45.01;69.97;;
75037;Laerm;64247;51.540;5.854;2023-04-15T05:05:00;54.64;45.80;71.93;;
75037;Laerm;64247;51.540;5.854;2023-04-15T05:07:01;54.69;46.27;73.65;;
75037;Laerm;64247;51.540;5.854;2023-04-15T05:09:02;53.50;46.67;68.88;;
75037;Laerm;64247;51.540;5.854;2023-04-15T05:11:03;53.87;47.29;71.01;;
75037;Laerm;64247;51.540;5.854;2023-04-15T05:13:04;54.63;46.64;71.95;;
75037;Laerm;64247;51.540;5.854;2023-04-15T05:15:06;55.10;46.69;72.98;;
75037;Laerm;64247;51.540;5.854;2023-04-15T05:17:07;54.25;46.40;70.89;;
75037;Laerm;64247;51.540;5.854;2023-04-15T05:19:08;50.67;46.26;58.65;;
75037;Laerm;64247;51.540;5.854;2023-04-15T05:21:09;52.38;46.84;67.90;;
75037;Laerm;64247;51.540;5.854;2023-04-15T05:23:11;53.24;46.17;69.84;;
75037;Laerm;64247;51.540;5.854;2023-04-15T05:25:12;52.00;46.68;67.99;;
75037;Laerm;64247;51.540;5.854;2023-04-15T05:27:13;51.68;46.64;70.16;;
75037;Laerm;64247;51.540;5.854;2023-04-15T05:29:14;52.41;47.25;64.82;;
75037;Laerm;64247;51.540;5.854;2023-04-15T05:31:15;51.79;47.54;65.06;;
75037;Laerm;64247;51.540;5.854;2023-04-15T05:33:16;52.49;47.32;62.57;;
75037;Laerm;64247;51.540;5.854;2023-04-15T05:35:17;50.72;46.38;62.65;;
75037;Laerm;64247;51.540;5.854;2023-04-15T05:37:18;51.20;46.57;61.78;;
75037;Laerm;64247;51.540;5.854;2023-04-15T05:39:20;52.99;47.27;67.64;;
75037;Laerm;64247;51.540;5.854;2023-04-15T05:41:21;54.57;47.12;69.21;;
75037;Laerm;64247;51.540;5.854;2023-04-15T05:43:22;52.67;46.28;70.28;;
75037;Laerm;64247;51.540;5.854;2023-04-15T05:45:23;54.82;47.70;75.19;;
75037;Laerm;64247;51.540;5.854;2023-04-15T05:47:24;55.62;46.75;74.29;;
75037;Laerm;64247;51.540;5.854;2023-04-15T05:49:24;54.57;46.90;71.27;;
75037;Laerm;64247;51.540;5.854;2023-04-15T05:51:25;54.04;48.08;68.86;;
75037;Laerm;64247;51.540;5.854;2023-04-15T05:53:26;53.10;46.62;63.91;;
75037;Laerm;64247;51.540;5.854;2023-04-15T05:55:27;55.32;46.77;68.10;;
75037;Laerm;64247;51.540;5.854;2023-04-15T05:57:28;54.81;48.35;63.36;;
75037;Laerm;64247;51.540;5.854;2023-04-15T05:59:29;54.44;47.34;62.84;;
75037;Laerm;64247;51.540;5.854;2023-04-15T06:01:30;53.28;47.94;62.94;;
75037;Laerm;64247;51.540;5.854;2023-04-15T06:03:31;53.96;46.30;66.64;;
75037;Laerm;64247;51.540;5.854;2023-04-15T06:05:33;52.40;46.32;69.22;;
75037;Laerm;64247;51.540;5.854;2023-04-15T06:07:37;52.15;46.75;65.01;;
75037;Laerm;64247;51.540;5.854;2023-04-15T06:09:38;51.65;46.64;63.41;;
75037;Laerm;64247;51.540;5.854;2023-04-15T06:11:40;56.27;46.87;71.13;;
75037;Laerm;64247;51.540;5.854;2023-04-15T06:13:40;53.61;47.19;61.60;;
75037;Laerm;64247;51.540;5.854;2023-04-15T06:15:41;55.11;47.70;65.91;;
75037;Laerm;64247;51.540;5.854;2023-04-15T06:17:42;52.80;47.22;63.81;;
75037;Laerm;64247;51.540;5.854;2023-04-15T06:19:43;52.81;46.81;64.39;;
75037;Laerm;64247;51.540;5.854;2023-04-15T06:21:44;53.16;47.19;64.24;;
75037;Laerm;64247;51.540;5.854;2023-04-15T06:23:46;53.50;46.47;68.33;;
75037;Laerm;64247;51.540;5.854;2023-04-15T06:25:46;57.06;47.50;67.98;;
75037;Laerm;64247;51.540;5.854;2023-04-15T06:27:47;56.72;48.74;69.47;;
75037;Laerm;64247;51.540;5.854;2023-04-15T06:29:48;54.33;46.92;66.41;;
75037;Laerm;64247;51.540;5.854;2023-04-15T06:31:49;52.37;46.89;66.77;;
75037;Laerm;64247;51.540;5.854;2023-04-15T06:33:50;53.27;46.77;66.14;;
75037;Laerm;64247;51.540;5.854;2023-04-15T06:35:51;56.37;48.10;66.57;;
75037;Laerm;64247;51.540;5.854;2023-04-15T06:37:52;54.82;47.12;67.02;;
75037;Laerm;64247;51.540;5.854;2023-04-15T06:39:53;56.22;47.07;70.34;;
75037;Laerm;64247;51.540;5.854;2023-04-15T06:41:54;55.39;46.88;69.09;;
75037;Laerm;64247;51.540;5.854;2023-04-15T06:43:56;53.92;47.52;64.87;;
75037;Laerm;64247;51.540;5.854;2023-04-15T06:45:57;54.72;46.23;70.16;;
75037;Laerm;64247;51.540;5.854;2023-04-15T06:47:58;54.79;47.54;66.35;;
75037;Laerm;64247;51.540;5.854;2023-04-15T06:49:59;52.39;46.66;64.29;;
75037;Laerm;64247;51.540;5.854;2023-04-15T06:52:00;60.90;47.30;69.54;;
75037;Laerm;64247;51.540;5.854;2023-04-15T06:54:01;61.40;59.15;69.33;;
75037;Laerm;64247;51.540;5.854;2023-04-15T06:56:07;61.35;59.15;65.67;;
75037;Laerm;64247;51.540;5.854;2023-04-15T06:58:09;61.52;59.25;66.27;;
75037;Laerm;64247;51.540;5.854;2023-04-15T07:00:11;57.51;47.08;70.49;;
75037;Laerm;64247;51.540;5.854;2023-04-15T07:02:12;58.04;47.09;72.06;;
75037;Laerm;64247;51.540;5.854;2023-04-15T07:04:14;52.27;46.74;65.61;;
75037;Laerm;64247;51.540;5.854;2023-04-15T07:06:14;54.04;46.26;66.21;;
75037;Laerm;64247;51.540;5.854;2023-04-15T07:08:15;50.97;46.74;64.78;;
75037;Laerm;64247;51.540;5.854;2023-04-15T07:10:16;53.46;47.72;61.82;;
75037;Laerm;64247;51.540;5.854;2023-04-15T07:12:17;56.51;47.72;66.99;;
75037;Laerm;64247;51.540;5.854;2023-04-15T07:14:18;54.69;46.26;67.63;;
75037;Laerm;64247;51.540;5.854;2023-04-15T07:16:19;53.68;46.62;66.19;;
75037;Laerm;64247;51.540;5.854;2023-04-15T07:18:20;56.74;47.03;68.22;;
75037;Laerm;64247;51.540;5.854;2023-04-15T07:20:21;53.12;47.76;64.23;;
75037;Laerm;64247;51.540;5.854;2023-04-15T07:22:22;53.72;47.54;66.64;;
75037;Laerm;64247;51.540;5.854;2023-04-15T07:24:23;53.85;46.47;67.91;;
75037;Laerm;64247;51.540;5.854;2023-04-15T07:26:26;56.72;46.38;73.54;;
75037;Laerm;64247;51.540;5.854;2023-04-15T07:28:27;55.76;46.44;69.92;;
75037;Laerm;64247;51.540;5.854;2023-04-15T07:30:27;53.07;46.60;65.21;;
75037;Laerm;64247;51.540;5.854;2023-04-15T07:32:29;55.85;46.37;73.30;;
75037;Laerm;64247;51.540;5.854;2023-04-15T07:34:30;53.54;47.00;64.52;;
75037;Laerm;64247;51.540;5.854;2023-04-15T07:36:30;53.81;46.67;65.05;;
75037;Laerm;64247;51.540;5.854;2023-04-15T07:38:31;54.18;46.85;69.27;;
75037;Laerm;64247;51.540;5.854;2023-04-15T07:40:32;53.98;46.33;66.55;;
75037;Laerm;64247;51.540;5.854;2023-04-15T07:42:34;53.37;47.20;63.54;;
75037;Laerm;64247;51.540;5.854;2023-04-15T07:44:35;52.48;46.50;64.02;;
75037;Laerm;64247;51.540;5.854;2023-04-15T07:46:36;56.88;46.43;75.64;;
75037;Laerm;64247;51.540;5.854;2023-04-15T07:48:37;52.92;46.82;66.68;;
75037;Laerm;64247;51.540;5.854;2023-04-15T07:50:38;54.43;47.20;69.01;;
75037;Laerm;64247;51.540;5.854;2023-04-15T07:52:39;58.15;47.52;71.86;;
75037;Laerm;64247;51.540;5.854;2023-04-15T07:54:40;57.60;47.73;69.65;;
75037;Laerm;64247;51.540;5.854;2023-04-15T07:56:41;57.11;46.90;69.55;;
75037;Laerm;64247;51.540;5.854;2023-04-15T07:58:42;55.36;47.67;69.02;;
75037;Laerm;64247;51.540;5.854;2023-04-15T08:00:43;54.49;45.84;65.79;;
75037;Laerm;64247;51.540;5.854;2023-04-15T08:02:44;56.66;46.63;73.00;;
75037;Laerm;64247;51.540;5.854;2023-04-15T08:04:46;55.81;46.66;71.15;;
75037;Laerm;64247;51.540;5.854;2023-04-15T08:06:47;55.23;45.97;68.79;;
75037;Laerm;64247;51.540;5.854;2023-04-15T08:08:49;56.27;46.80;68.02;;
75037;Laerm;64247;51.540;5.854;2023-04-15T08:10:51;55.08;46.81;69.60;;
75037;Laerm;64247;51.540;5.854;2023-04-15T08:12:53;52.98;46.46;66.38;;
75037;Laerm;64247;51.540;5.854;2023-04-15T08:14:54;53.23;46.64;64.31;;
75037;Laerm;64247;51.540;5.854;2023-04-15T08:16:56;55.71;47.62;65.81;;
75037;Laerm;64247;51.540;5.854;2023-04-15T08:18:57;53.37;47.27;66.17;;
75037;Laerm;64247;51.540;5.854;2023-04-15T08:20:58;53.54;46.86;65.94;;
75037;Laerm;64247;51.540;5.854;2023-04-15T08:22:59;57.33;48.25;76.66;;
75037;Laerm;64247;51.540;5.854;2023-04-15T08:25:01;54.92;47.41;74.23;;
75037;Laerm;64247;51.540;5.854;2023-04-15T08:27:01;54.38;47.63;73.03;;
75037;Laerm;64247;51.540;5.854;2023-04-15T08:29:04;58.43;47.67;71.11;;
75037;Laerm;64247;51.540;5.854;2023-04-15T08:31:05;52.13;47.10;64.76;;
75037;Laerm;64247;51.540;5.854;2023-04-15T08:33:06;56.20;47.47;67.58;;
75037;Laerm;64247;51.540;5.854;2023-04-15T08:35:07;52.96;47.13;65.80;;
75037;Laerm;64247;51.540;5.854;2023-04-15T08:37:08;55.29;47.25;66.37;;
75037;Laerm;64247;51.540;5.854;2023-04-15T08:39:09;51.76;45.70;63.73;;
75037;Laerm;64247;51.540;5.854;2023-04-15T08:41:23;53.71;47.09;68.19;;
75037;Laerm;64247;51.540;5.854;2023-04-15T08:43:32;54.44;47.41;69.40;;
75037;Laerm;64247;51.540;5.854;2023-04-15T08:45:34;53.53;46.00;66.50;;
75037;Laerm;64247;51.540;5.854;2023-04-15T08:47:37;55.45;47.06;69.67;;
75037;Laerm;64247;51.540;5.854;2023-04-15T08:49:43;55.26;46.30;69.47;;
75037;Laerm;64247;51.540;5.854;2023-04-15T08:51:44;55.51;46.27;71.42;;
75037;Laerm;64247;51.540;5.854;2023-04-15T08:53:46;55.89;45.07;75.07;;
75037;Laerm;64247;51.540;5.854;2023-04-15T08:55:51;55.66;45.52;72.57;;
75037;Laerm;64247;51.540;5.854;2023-04-15T08:57:54;54.71;46.30;69.33;;
75037;Laerm;64247;51.540;5.854;2023-04-15T08:59:56;54.86;46.32;71.82;;
75037;Laerm;64247;51.540;5.854;2023-04-15T09:01:58;51.52;45.49;65.21;;
75037;Laerm;64247;51.540;5.854;2023-04-15T09:04:01;53.88;46.01;66.14;;
75037;Laerm;64247;51.540;5.854;2023-04-15T09:06:04;54.94;45.85;67.79;;
75037;Laerm;64247;51.540;5.854;2023-04-15T09:08:06;53.14;46.11;65.16;;
75037;Laerm;64247;51.540;5.854;2023-04-15T09:10:09;53.22;46.57;68.07;;
75037;Laerm;64247;51.540;5.854;2023-04-15T09:12:11;54.07;46.74;67.85;;
75037;Laerm;64247;51.540;5.854;2023-04-15T09:14:12;54.96;47.18;68.25;;
75037;Laerm;64247;51.540;5.854;2023-04-15T09:16:13;53.56;46.92;67.88;;
75037;Laerm;64247;51.540;5.854;2023-04-15T09:18:31;55.78;47.98;68.48;;
75037;Laerm;64247;51.540;5.854;2023-04-15T09:20:40;55.72;47.23;67.92;;
75037;Laerm;64247;51.540;5.854;2023-04-15T09:22:46;55.37;48.50;68.81;;
75037;Laerm;64247;51.540;5.854;2023-04-15T09:24:48;54.85;48.21;64.53;;
75037;Laerm;64247;51.540;5.854;2023-04-15T09:26:53;53.92;47.94;63.32;;
75037;Laerm;64247;51.540;5.854;2023-04-15T09:29:10;54.35;48.00;63.32;;
75037;Laerm;64247;51.540;5.854;2023-04-15T09:31:14;54.66;49.57;68.12;;
75037;Laerm;64247;51.540;5.854;2023-04-15T09:33:15;54.87;50.15;65.40;;
75037;Laerm;64247;51.540;5.854;2023-04-15T09:35:17;52.93;46.71;64.71;;
75037;Laerm;64247;51.540;5.854;2023-04-15T09:37:34;54.22;47.76;69.27;;
75037;Laerm;64247;51.540;5.854;2023-04-15T09:39:50;53.40;47.22;68.35;;
75037;Laerm;64247;51.540;5.854;2023-04-15T09:42:07;54.70;48.88;72.61;;
75037;Laerm;64247;51.540;5.854;2023-04-15T09:44:22;52.23;47.18;61.98;;
75037;Laerm;64247;51.540;5.854;2023-04-15T09:46:44;51.53;46.71;60.90;;
75037;Laerm;64247;51.540;5.854;2023-04-15T09:48:45;56.94;47.99;70.53;;
75037;Laerm;64247;51.540;5.854;2023-04-15T09:50:48;54.86;46.85;74.06;;
75037;Laerm;64247;51.540;5.854;2023-04-15T09:52:49;61.21;46.65;77.17;;
75037;Laerm;64247;51.540;5.854;2023-04-15T09:54:53;54.07;46.51;69.60;;
75037;Laerm;64247;51.540;5.854;2023-04-15T09:56:56;52.56;46.47;65.06;;
75037;Laerm;64247;51.540;5.854;2023-04-15T09:58:56;52.85;46.12;67.43;;
75037;Laerm;64247;51.540;5.854;2023-04-15T10:01:02;51.61;46.34;64.33;;
75037;Laerm;64247;51.540;5.854;2023-04-15T10:03:04;51.41;46.42;63.33;;
75037;Laerm;64247;51.540;5.854;2023-04-15T10:05:10;50.62;46.70;65.30;;
75037;Laerm;64247;51.540;5.854;2023-04-15T10:07:12;53.09;46.57;67.17;;
75037;Laerm;64247;51.540;5.854;2023-04-15T10:09:14;56.93;47.67;70.20;;
75037;Laerm;64247;51.540;5.854;2023-04-15T10:11:21;57.71;46.80;73.21;;
75037;Laerm;64247;51.540;5.854;2023-04-15T10:13:25;58.53;46.95;70.52;;
75037;Laerm;64247;51.540;5.854;2023-04-15T10:15:29;53.61;46.76;69.11;;
75037;Laerm;64247;51.540;5.854;2023-04-15T10:17:32;59.14;46.52;77.12;;
75037;Laerm;64247;51.540;5.854;2023-04-15T10:19:36;54.84;47.24;75.62;;
75037;Laerm;64247;51.540;5.854;2023-04-15T10:21:38;56.14;46.90;73.73;;
75037;Laerm;64247;51.540;5.854;2023-04-15T10:23:40;58.73;46.96;73.85;;
75037;Laerm;64247;51.540;5.854;2023-04-15T10:25:42;57.70;47.36;71.95;;
75037;Laerm;64247;51.540;5.854;2023-04-15T10:27:44;52.15;46.00;65.39;;
75037;Laerm;64247;51.540;5.854;2023-04-15T10:29:51;49.78;46.42;58.96;;
75037;Laerm;64247;51.540;5.854;2023-04-15T10:31:54;58.18;46.71;73.86;;
75037;Laerm;64247;51.540;5.854;2023-04-15T10:33:57;51.33;46.28;63.28;;
75037;Laerm;64247;51.540;5.854;2023-04-15T10:35:59;50.99;46.12;63.35;;
75037;Laerm;64247;51.540;5.854;2023-04-15T10:38:00;50.73;46.06;63.25;;
75037;Laerm;64247;51.540;5.854;2023-04-15T10:40:26;50.53;45.28;62.83;;
75037;Laerm;64247;51.540;5.854;2023-04-15T10:42:33;53.64;45.88;69.70;;
75037;Laerm;64247;51.540;5.854;2023-04-15T10:44:37;56.39;46.89;71.29;;
75037;Laerm;64247;51.540;5.854;2023-04-15T10:46:43;59.23;46.86;71.85;;
75037;Laerm;64247;51.540;5.854;2023-04-15T10:48:51;52.97;46.60;64.09;;
75037;Laerm;64247;51.540;5.854;2023-04-15T10:50:56;51.61;46.51;67.74;;
75037;Laerm;64247;51.540;5.854;2023-04-15T10:52:58;55.50;45.74;70.22;;
75037;Laerm;64247;51.540;5.854;2023-04-15T10:55:15;54.84;45.87;68.34;;
75037;Laerm;64247;51.540;5.854;2023-04-15T10:57:22;54.71;46.40;73.10;;
75037;Laerm;64247;51.540;5.854;2023-04-15T10:59:23;52.22;46.63;63.13;;
75037;Laerm;64247;51.540;5.854;2023-04-15T11:01:54;54.45;46.46;67.93;;
75037;Laerm;64247;51.540;5.854;2023-04-15T11:03:59;56.64;46.29;70.43;;
75037;Laerm;64247;51.540;5.854;2023-04-15T11:06:00;51.69;45.99;68.84;;
75037;Laerm;64247;51.540;5.854;2023-04-15T11:08:01;51.79;45.10;67.90;;
75037;Laerm;64247;51.540;5.854;2023-04-15T11:12:55;63.86;47.59;82.69;;
75037;Laerm;64247;51.540;5.854;2023-04-15T11:14:56;58.51;47.48;71.14;;
75037;Laerm;64247;51.540;5.854;2023-04-15T11:16:57;62.27;48.53;71.67;;
75037;Laerm;64247;51.540;5.854;2023-04-15T11:18:58;59.32;48.26;72.76;;
75037;Laerm;64247;51.540;5.854;2023-04-15T11:21:03;53.46;47.16;65.93;;
75037;Laerm;64247;51.540;5.854;2023-04-15T11:23:05;55.46;47.00;73.45;;
75037;Laerm;64247;51.540;5.854;2023-04-15T11:25:06;54.00;47.19;75.28;;
75037;Laerm;64247;51.540;5.854;2023-04-15T11:27:22;57.83;48.69;67.77;;